Time;durP1;ratioP1;P1;durP2;ratioP2;P2;SDS_P1;SDS_P2;PMS_P1;PMS_P2;Temp;Humidity;BMP_temperature;BMP_pressure;BME280_temperature;BME280_humidity;BME280_pressure;Samples;Min_cycle;Max_cycle;Signal;HPM_P1;HPM_P2
2022/06/15 00:01:26;;;;;;;4.43;1.70;;;;;;;16.42;78.17;100772.16;4485027;31;20146;-66
2022/06/15 00:03:54;;;;;;;7.43;1.60;;;;;;;16.44;77.64;100765.87;4485249;31;20084;-66
2022/06/15 00:06:24;;;;;;;1.45;0.98;;;;;;;16.39;78.50;100774.91;4470210;31;20134;-66
2022/06/15 00:08:54;;;;;;;6.93;1.35;;;;;;;16.45;77.97;100769.41;4485009;31;20097;-66
2022/06/15 00:11:24;;;;;;;8.73;1.48;;;;;;;16.44;77.90;100765.03;4485117;31;20072;-66
2022/06/15 00:13:54;;;;;;;1.67;1.40;;;;;;;16.47;76.68;100768.47;4484879;31;20160;-66
2022/06/15 00:16:22;;;;;;;2.05;1.30;;;;;;;16.66;74.98;100765.22;4485033;31;20652;-66
2022/06/15 00:18:49;;;;;;;5.03;1.10;;;;;;;16.61;76.03;100773.38;4484977;31;20183;-66
2022/06/15 00:21:17;;;;;;;3.62;1.10;;;;;;;16.75;76.19;100772.06;4484809;31;20075;-66
2022/06/15 00:23:46;;;;;;;5.00;1.65;;;;;;;16.66;76.39;100773.22;4484832;31;20122;-66
2022/06/15 00:26:14;;;;;;;2.92;1.20;;;;;;;16.70;75.00;100770.41;4484667;31;20172;-66
2022/06/15 00:28:42;;;;;;;2.58;1.23;;;;;;;16.75;75.61;100769.41;4484804;31;20137;-66
2022/06/15 00:31:10;;;;;;;6.32;1.23;;;;;;;16.74;75.29;100768.53;4484617;31;20113;-66
2022/06/15 00:33:37;;;;;;;3.20;1.10;;;;;;;16.66;75.41;100759.91;4484750;31;20088;-66
2022/06/15 00:36:08;;;;;;;4.47;1.48;;;;;;;16.64;74.25;100762.63;4484648;31;20096;-66
2022/06/15 00:38:45;;;;;;;2.30;1.20;;;;;;;16.88;72.51;100754.81;4484592;31;20157;-66
2022/06/15 00:41:21;;;;;;;1.37;1.17;;;;;;;16.97;71.82;100762.50;4484682;31;20091;-66
2022/06/15 00:43:54;;;;;;;3.75;1.30;;;;;;;17.05;70.97;100764.91;4484776;31;20068;-66
2022/06/15 00:46:37;;;;;;;2.03;1.00;;;;;;;17.14;69.93;100764.62;4484670;31;20088;-66
2022/06/15 00:49:30;;;;;;;1.35;1.00;;;;;;;17.18;69.20;100761.81;4485922;31;20103;-66
2022/06/15 00:52:07;;;;;;;2.08;1.30;;;;;;;17.08;70.40;100767.50;4457876;31;20440;-66
2022/06/15 00:54:35;;;;;;;3.10;1.60;;;;;;;16.90;72.07;100772.47;4486671;31;20144;-66
2022/06/15 00:57:04;;;;;;;7.53;1.20;;;;;;;16.85;73.09;100776.19;4486544;31;20130;-66
2022/06/15 00:59:43;;;;;;;4.12;1.52;;;;;;;16.63;74.30;100784.81;4486535;31;20122;-66
2022/06/15 01:02:10;;;;;;;2.53;1.30;;;;;;;16.48;76.30;100782.63;4486549;31;20080;-66
2022/06/15 01:04:44;;;;;;;4.68;1.33;;;;;;;16.63;76.48;100781.28;4486573;31;20443;-66
2022/06/15 01:07:42;;;;;;;3.35;1.00;;;;;;;16.50;77.98;100786.09;4486504;31;20424;-66
2022/06/15 01:10:30;;;;;;;1.58;1.40;;;;;;;16.54;77.17;100793.09;4486635;31;20169;-66
2022/06/15 01:13:20;;;;;;;2.67;1.58;;;;;;;16.55;76.09;100793.94;4486563;31;20068;-66
2022/06/15 01:16:12;;;;;;;3.78;1.83;;;;;;;16.42;76.61;100798.75;4486518;31;20072;-66
2022/06/15 01:19:00;;;;;;;4.95;1.40;;;;;;;16.47;75.84;100794.19;4486455;31;20172;-66
2022/06/15 01:22:00;;;;;;;5.82;1.60;;;;;;;16.32;77.66;100798.16;4486672;31;20100;-66
2022/06/15 01:24:41;;;;;;;1.65;1.37;;;;;;;16.28;79.58;100796.50;4486366;31;20115;-66
2022/06/15 01:27:24;;;;;;;1.45;1.30;;;;;;;16.35;79.16;100799.84;4486563;31;20102;-66
2022/06/15 01:30:23;;;;;;;1.60;1.50;;;;;;;16.39;76.80;100796.19;4486400;31;20088;-66
2022/06/15 01:33:18;;;;;;;1.48;1.37;;;;;;;16.22;78.62;100794.03;4451155;31;20438;-66
2022/06/15 01:36:00;;;;;;;2.87;1.65;;;;;;;16.04;79.94;100798.06;4486401;31;20088;-66
2022/06/15 01:38:40;;;;;;;2.90;1.27;;;;;;;15.84;82.41;100795.97;4486132;31;20580;-66
2022/06/15 01:41:27;;;;;;;2.10;1.70;;;;;;;15.89;81.48;100801.16;4486300;31;20083;-68
2022/06/15 01:44:02;;;;;;;3.25;1.67;;;;;;;15.94;80.68;100801.91;4486288;31;20159;-68
2022/06/15 01:46:30;;;;;;;5.32;2.00;;;;;;;15.93;83.24;100800.13;4486462;31;20080;-68
2022/06/15 01:48:59;;;;;;;2.40;1.70;;;;;;;15.72;83.20;100805.12;4486331;31;20087;-68
2022/06/15 01:51:33;;;;;;;2.42;1.50;;;;;;;15.73;83.66;100798.03;4486650;31;20130;-68
2022/06/15 01:54:07;;;;;;;6.15;1.75;;;;;;;15.67;84.10;100799.06;4486488;31;20189;-68
2022/06/15 01:56:40;;;;;;;1.90;1.62;;;;;;;15.73;84.82;100795.38;4486432;31;20068;-68
2022/06/15 01:59:20;;;;;;;2.60;1.80;;;;;;;15.74;83.90;100800.66;4486615;31;20555;-68
2022/06/15 02:02:02;;;;;;;1.70;1.60;;;;;;;15.78;83.27;100799.66;4486396;31;20089;-68
2022/06/15 02:04:57;;;;;;;3.20;1.62;;;;;;;15.78;83.21;100797.00;4486456;31;20096;-68
2022/06/15 02:07:45;;;;;;;1.83;1.62;;;;;;;15.78;84.06;100793.47;4486447;31;20095;-67
2022/06/15 02:10:27;;;;;;;1.87;1.70;;;;;;;15.76;85.10;100804.16;4471688;31;20113;-68
2022/06/15 02:13:17;;;;;;;3.60;1.50;;;;;;;15.70;84.11;100801.62;4486375;31;20588;-68
2022/06/15 02:15:49;;;;;;;3.62;1.60;;;;;;;15.72;83.30;100799.81;4486112;31;20131;-68
2022/06/15 02:18:24;;;;;;;6.93;1.50;;;;;;;15.87;81.71;100798.53;4486110;31;20166;-68
2022/06/15 02:21:00;;;;;;;1.85;1.33;;;;;;;15.97;79.87;100799.13;4486163;31;20068;-68
2022/06/15 02:23:30;;;;;;;4.50;1.60;;;;;;;16.11;78.49;100799.63;4486002;31;20114;-68
2022/06/15 02:25:59;;;;;;;5.25;1.70;;;;;;;16.03;78.73;100804.28;4486211;31;20122;-68
2022/06/15 02:28:32;;;;;;;2.33;1.37;;;;;;;15.93;78.53;100803.66;4485942;31;20158;-68
2022/06/15 02:31:00;;;;;;;2.00;1.60;;;;;;;16.09;77.04;100803.25;4486019;31;20079;-68
2022/06/15 02:33:31;;;;;;;1.48;1.37;;;;;;;16.10;76.41;100794.38;4486106;31;20130;-68
2022/06/15 02:36:01;;;;;;;6.70;1.35;;;;;;;15.95;78.54;100798.31;4486155;31;20107;-68
2022/06/15 02:38:30;;;;;;;1.87;1.30;;;;;;;15.81;78.95;100795.16;4485892;31;20432;-68
2022/06/15 02:40:58;;;;;;;3.90;1.83;;;;;;;15.71;78.97;100787.44;4485889;31;20552;-68
2022/06/15 02:43:29;;;;;;;3.00;1.02;;;;;;;15.52;77.81;100791.47;4486001;31;20467;-68
2022/06/15 02:46:01;;;;;;;1.67;1.30;;;;;;;15.62;76.78;100792.06;4485967;31;20476;-67
2022/06/15 02:48:35;;;;;;;2.67;1.12;;;;;;;15.73;75.48;100788.28;4486003;31;20558;-68
2022/06/15 02:51:46;;;;;;;2.55;1.40;;;;;;;15.69;74.83;100793.72;4486052;31;20162;-68
2022/06/15 02:54:32;;;;;;;1.80;1.10;;;;;;;15.63;75.06;100792.06;4485475;31;20163;-68
2022/06/15 02:57:02;;;;;;;3.03;1.45;;;;;;;15.94;73.84;100800.13;4471779;31;20170;-68
2022/06/15 02:59:31;;;;;;;3.92;1.30;;;;;;;15.95;74.13;100803.66;4485949;31;20139;-68
2022/06/15 03:02:00;;;;;;;6.80;1.50;;;;;;;15.94;76.00;100804.56;4485863;31;20135;-68
2022/06/15 03:04:27;;;;;;;2.45;1.80;;;;;;;15.90;77.48;100800.22;4485877;31;20092;-68
2022/06/15 03:06:56;;;;;;;3.75;1.52;;;;;;;15.67;79.45;100806.16;4485830;31;20122;-68
2022/06/15 03:09:24;;;;;;;7.45;2.08;;;;;;;15.72;79.95;100805.12;4485859;31;20115;-68
2022/06/15 03:11:52;;;;;;;3.47;1.70;;;;;;;15.58;82.16;100814.31;4485254;31;20582;-68
2022/06/15 03:14:20;;;;;;;5.10;1.87;;;;;;;15.60;82.08;100813.37;4485764;31;20100;-68
2022/06/15 03:16:49;;;;;;;6.78;2.37;;;;;;;15.51;83.43;100813.59;4485755;31;20112;-68
2022/06/15 03:19:17;;;;;;;4.40;2.28;;;;;;;15.59;84.79;100814.31;4485860;31;20167;-68
2022/06/15 03:21:51;;;;;;;4.32;1.80;;;;;;;15.57;85.61;100821.41;4485718;31;20234;-68
2022/06/15 03:24:20;;;;;;;5.97;2.10;;;;;;;15.84;82.71;100816.34;4485456;31;20144;-68
2022/06/15 03:26:48;;;;;;;3.87;1.85;;;;;;;15.86;83.06;100817.16;4485735;31;20560;-68
2022/06/15 03:29:17;;;;;;;4.53;1.90;;;;;;;15.90;83.41;100813.50;4485805;31;20176;-68
2022/06/15 03:31:46;;;;;;;4.57;1.80;;;;;;;15.94;83.31;100820.50;4485609;31;20084;-68
2022/06/15 03:34:13;;;;;;;4.78;1.70;;;;;;;15.91;83.53;100818.81;4485715;31;20092;-68
2022/06/15 03:36:41;;;;;;;1.87;1.60;;;;;;;15.91;84.16;100817.94;4485558;31;20108;-68
2022/06/15 03:39:08;;;;;;;5.12;2.00;;;;;;;15.89;83.96;100815.28;4485503;31;20089;-68
2022/06/15 03:41:36;;;;;;;2.25;1.83;;;;;;;15.92;83.57;100811.69;4485477;31;20466;-68
2022/06/15 03:44:05;;;;;;;2.87;1.42;;;;;;;16.02;83.33;100813.19;4485430;31;20505;-68
2022/06/15 03:46:33;;;;;;;1.27;1.20;;;;;;;15.97;80.95;100815.09;4485243;31;20161;-68
2022/06/15 03:49:01;;;;;;;8.25;1.45;;;;;;;16.15;80.80;100817.25;4485615;31;20089;-68
2022/06/15 03:51:29;;;;;;;2.20;1.35;;;;;;;16.22;79.50;100810.00;4485192;31;20092;-68
2022/06/15 03:53:57;;;;;;;2.90;1.30;;;;;;;16.23;78.51;100817.91;4485274;31;20157;-68
2022/06/15 03:56:40;;;;;;;3.92;1.10;;;;;;;16.38;77.57;100815.72;4474520;31;20126;-68
2022/06/15 03:59:09;;;;;;;2.20;1.15;;;;;;;16.47;75.78;100815.47;4467026;31;20127;-68
2022/06/15 04:01:37;;;;;;;2.25;1.62;;;;;;;16.60;76.00;100824.81;4485681;31;20145;-67
2022/06/15 04:04:04;;;;;;;2.67;1.25;;;;;;;16.89;75.20;100815.09;4486059;31;20661;-68
2022/06/15 04:06:33;;;;;;;1.95;1.05;;;;;;;16.99;73.60;100823.69;4485763;31;20107;-68
2022/06/15 04:09:00;;;;;;;2.87;1.50;;;;;;;17.00;73.20;100820.97;4470828;31;20118;-68
2022/06/15 04:14:16;;;;;;;4.25;1.08;;;;;;;17.37;71.70;100825.97;4485178;31;20395;-68
2022/06/15 04:16:44;;;;;;;3.42;1.20;;;;;;;17.62;70.85;100827.81;4485074;31;20519;-68
2022/06/15 04:19:11;;;;;;;3.45;1.23;;;;;;;17.77;70.44;100829.13;4485075;31;20080;-66
2022/06/15 04:21:43;;;;;;;7.85;1.30;;;;;;;17.82;71.04;100821.84;4484705;31;20114;-66
2022/06/15 04:24:11;;;;;;;4.22;2.10;;;;;;;17.94;71.68;100829.41;4482555;31;20369;-66
2022/06/15 04:26:40;;;;;;;3.45;1.80;;;;;;;18.01;73.77;100825.59;4455583;32;20108;-66
2022/06/15 04:29:08;;;;;;;4.62;1.45;;;;;;;17.98;70.89;100827.50;4470994;32;20114;-66
2022/06/15 04:31:38;;;;;;;6.35;1.87;;;;;;;18.09;70.44;100826.22;4471237;32;20500;-66
2022/06/15 04:34:07;;;;;;;11.27;1.67;;;;;;;18.20;69.89;100831.16;4469016;32;20459;-66
2022/06/15 04:36:37;;;;;;;5.25;1.70;;;;;;;18.37;68.60;100825.19;4470451;32;20100;-66
2022/06/15 04:39:05;;;;;;;2.97;1.90;;;;;;;18.39;69.61;100823.34;4471094;32;20089;-66
2022/06/15 04:41:34;;;;;;;2.95;1.83;;;;;;;18.47;68.02;100826.59;4470873;32;20392;-66
2022/06/15 04:44:02;;;;;;;3.87;2.05;;;;;;;18.62;67.65;100830.47;4468224;32;20659;-66
2022/06/15 04:46:29;;;;;;;2.40;1.90;;;;;;;18.73;66.79;100827.41;4470847;32;20790;-66
2022/06/15 04:48:58;;;;;;;4.47;2.00;;;;;;;18.82;66.83;100827.94;4470745;32;20084;-68
2022/06/15 04:51:30;;;;;;;4.30;1.58;;;;;;;18.94;66.90;100831.06;4471114;32;20566;-66
2022/06/15 04:54:01;;;;;;;2.70;1.80;;;;;;;19.10;65.54;100827.72;4470882;32;20097;-66
2022/06/15 04:56:28;;;;;;;2.60;1.90;;;;;;;19.15;65.88;100835.53;4465236;32;20108;-68
2022/06/15 04:59:04;;;;;;;3.15;1.70;;;;;;;19.18;65.67;100834.56;4463032;32;20188;-67
2022/06/15 05:01:31;;;;;;;3.58;1.83;;;;;;;19.29;66.12;100832.31;4463600;32;20085;-67
2022/06/15 05:03:59;;;;;;;30.83;2.67;;;;;;;19.34;65.23;100835.69;4462256;32;20103;-67
2022/06/15 05:06:26;;;;;;;8.68;2.00;;;;;;;19.51;65.71;100835.88;4463593;32;20169;-67
2022/06/15 05:08:55;;;;;;;11.80;2.25;;;;;;;19.58;67.40;100841.81;4460418;32;20092;-67
2022/06/15 05:11:23;;;;;;;11.18;2.42;;;;;;;19.85;66.32;100845.16;4462356;32;20101;-67
2022/06/15 05:13:50;;;;;;;14.48;2.30;;;;;;;19.89;66.83;100840.53;4462135;32;20187;-67
2022/06/15 05:16:18;;;;;;;10.80;2.05;;;;;;;20.01;65.84;100837.34;4461656;32;20151;-67
2022/06/15 05:18:47;;;;;;;7.60;3.10;;;;;;;20.14;65.16;100843.91;4458160;32;20168;-67
2022/06/15 05:21:15;;;;;;;16.85;2.35;;;;;;;20.33;64.72;100843.94;4459133;32;20172;-67
2022/06/15 05:23:43;;;;;;;4.10;1.85;;;;;;;20.37;64.59;100839.31;4462692;32;20439;-67
2022/06/15 05:26:11;;;;;;;10.02;1.80;;;;;;;20.44;65.54;100836.28;4463774;32;20130;-67
2022/06/15 05:28:44;;;;;;;4.60;2.80;;;;;;;20.61;64.68;100840.91;4462600;32;20156;-67
2022/06/15 05:31:16;;;;;;;9.48;2.20;;;;;;;20.73;64.69;100840.31;4462518;32;20110;-67
2022/06/15 05:33:44;;;;;;;3.83;1.90;;;;;;;21.02;65.66;100843.41;4461785;32;20100;-67
2022/06/15 05:36:15;;;;;;;8.23;3.08;;;;;;;21.09;65.99;100842.19;4462029;32;20115;-67
2022/06/15 05:38:43;;;;;;;6.15;2.33;;;;;;;21.14;64.20;100836.63;4463083;32;20196;-67
2022/06/15 05:41:10;;;;;;;4.47;1.90;;;;;;;21.39;63.92;100847.03;4461591;32;20147;-67
2022/06/15 05:43:41;;;;;;;7.50;1.75;;;;;;;21.37;58.81;100847.09;4463981;32;20173;-67
2022/06/15 05:46:13;;;;;;;7.72;2.20;;;;;;;21.58;56.75;100841.63;4454863;32;20103;-67
2022/06/15 05:48:41;;;;;;;3.00;1.95;;;;;;;21.71;56.68;100853.47;4469841;32;20114;-67
2022/06/15 05:51:09;;;;;;;5.55;2.00;;;;;;;21.87;57.82;100853.53;4469857;32;20101;-67
2022/06/15 05:53:36;;;;;;;5.72;1.65;;;;;;;21.95;55.54;100846.00;4455375;32;20138;-67
2022/06/15 05:56:04;;;;;;;2.03;1.20;;;;;;;22.17;52.47;100851.13;4470196;32;20564;-67
2022/06/15 05:58:31;;;;;;;4.85;1.50;;;;;;;22.26;53.60;100849.75;4470346;32;20085;-67
2022/06/15 06:01:26;;;;;;;4.72;1.30;;;;;;;22.28;51.67;100853.25;4470499;32;20096;-67
2022/06/15 06:03:54;;;;;;;4.30;1.40;;;;;;;22.38;48.87;100857.19;4470724;32;20154;-67
2022/06/15 06:06:21;;;;;;;17.55;1.62;;;;;;;22.50;49.08;100852.94;4471072;32;20174;-67
2022/06/15 06:08:48;;;;;;;6.87;1.70;;;;;;;22.66;50.03;100857.41;4471048;32;20141;-67
2022/06/15 06:11:16;;;;;;;8.60;1.30;;;;;;;22.58;47.95;100861.44;4470662;32;20084;-66
2022/06/15 06:13:44;;;;;;;12.50;1.65;;;;;;;22.58;48.95;100859.66;4470796;32;20100;-67
2022/06/15 06:16:19;;;;;;;7.53;1.27;;;;;;;22.78;50.39;100863.91;4470541;32;20096;-67
2022/06/15 06:18:47;;;;;;;6.90;1.30;;;;;;;22.86;48.94;100872.44;4466465;32;20088;-67
2022/06/15 06:21:14;;;;;;;1.83;1.40;;;;;;;22.88;46.64;100870.53;4461520;32;20089;-67
2022/06/15 06:23:42;;;;;;;4.75;1.20;;;;;;;22.87;46.55;100878.69;4464377;32;20150;-67
2022/06/15 06:26:33;;;;;;;2.42;1.65;;;;;;;22.79;46.46;100871.06;4463171;32;20126;-67
2022/06/15 06:29:01;;;;;;;4.68;1.80;;;;;;;22.87;46.36;100868.81;4463579;32;20084;-67
2022/06/15 06:31:28;;;;;;;10.27;1.95;;;;;;;22.93;46.91;100866.75;4460920;32;20155;-67
2022/06/15 06:33:56;;;;;;;9.10;1.23;;;;;;;23.04;48.27;100875.06;4457407;32;20092;-67
2022/06/15 06:36:30;;;;;;;4.28;1.50;;;;;;;23.19;47.70;100876.91;4470998;32;20131;-67
2022/06/15 06:39:00;;;;;;;11.10;1.60;;;;;;;23.24;46.88;100871.25;4455200;32;20088;-67
2022/06/15 06:41:28;;;;;;;5.55;1.83;;;;;;;23.09;46.22;100873.00;4455373;32;20077;-67
2022/06/15 06:44:03;;;;;;;15.23;1.83;;;;;;;23.31;46.88;100878.03;4455259;32;20100;-67
2022/06/15 06:46:32;;;;;;;5.68;1.52;;;;;;;23.38;47.15;100874.03;4455270;32;20824;-67
2022/06/15 06:49:00;;;;;;;6.85;1.98;;;;;;;23.57;47.25;100876.53;4460239;31;20123;-67
2022/06/15 06:51:27;;;;;;;3.78;1.40;;;;;;;23.54;45.67;100882.97;4455332;32;20518;-67
2022/06/15 06:53:55;;;;;;;17.83;2.15;;;;;;;23.74;45.02;100880.94;4455078;32;20096;-67
2022/06/15 06:56:22;;;;;;;3.65;1.15;;;;;;;23.67;45.72;100882.22;4455406;32;20100;-67
2022/06/15 06:58:49;;;;;;;4.80;1.35;;;;;;;23.76;47.06;100879.03;4455227;32;20385;-67
2022/06/15 07:01:16;;;;;;;14.48;1.85;;;;;;;23.98;46.55;100879.50;4454974;32;20718;-67
2022/06/15 07:03:44;;;;;;;7.68;1.55;;;;;;;24.03;45.37;100884.63;4454569;32;20092;-67
2022/06/15 07:06:11;;;;;;;3.87;1.67;;;;;;;24.02;44.91;100872.09;4455323;32;20685;-67
2022/06/15 07:08:39;;;;;;;2.60;0.90;;;;;;;24.20;45.59;100879.06;4455007;32;20552;-67
2022/06/15 07:11:08;;;;;;;2.65;1.30;;;;;;;24.26;44.42;100886.78;4466368;32;20093;-67
2022/06/15 07:13:36;;;;;;;5.10;1.40;;;;;;;24.37;43.06;100878.03;4470776;32;20750;-67
2022/06/15 07:16:08;;;;;;;2.40;1.30;;;;;;;24.42;43.39;100885.88;4470701;32;20450;-67
2022/06/15 07:18:35;;;;;;;5.03;1.48;;;;;;;24.59;43.34;100884.81;4470777;32;20077;-67
2022/06/15 07:21:13;;;;;;;6.22;1.25;;;;;;;24.73;44.16;100876.72;4470760;32;20085;-67
2022/06/15 07:23:43;;;;;;;6.28;1.40;;;;;;;24.88;43.54;100881.16;4467204;32;20701;-67
2022/06/15 07:26:14;;;;;;;5.75;1.52;;;;;;;24.77;42.55;100879.16;4458990;32;20521;-67
2022/06/15 07:28:42;;;;;;;6.25;1.58;;;;;;;24.42;41.22;100889.44;4456194;32;20081;-67
2022/06/15 07:31:36;;;;;;;8.75;2.22;;;;;;;24.44;41.76;100883.94;4461309;32;20150;-67
2022/06/15 07:34:05;;;;;;;20.30;2.37;;;;;;;24.72;41.83;100877.69;4460967;32;20171;-67
2022/06/15 07:36:35;;;;;;;2.10;1.00;;;;;;;24.83;42.10;100871.63;4465246;32;20123;-67
2022/06/15 07:39:05;;;;;;;4.57;1.23;;;;;;;24.99;42.45;100875.94;4468558;32;20149;-67
2022/06/15 07:41:33;;;;;;;3.58;1.77;;;;;;;25.12;42.13;100872.47;4469582;32;20141;-67
2022/06/15 07:44:01;;;;;;;4.95;1.15;;;;;;;25.19;40.50;100880.06;4470264;32;20092;-68
2022/06/15 07:46:28;;;;;;;7.25;1.23;;;;;;;25.12;41.05;100873.34;4460394;32;20108;-67
2022/06/15 07:51:45;;;;;;;6.62;1.75;;;;;;;25.30;41.05;100870.41;4454168;32;20085;-68
2022/06/15 07:54:16;;;;;;;3.42;1.35;;;;;;;25.26;41.08;100875.13;4453771;32;20097;-68
2022/06/15 07:56:45;;;;;;;7.37;1.45;;;;;;;25.45;42.87;100874.81;4453607;32;20173;-68
2022/06/15 07:59:13;;;;;;;3.70;1.12;;;;;;;25.41;40.60;100873.28;4459668;32;20104;-68
2022/06/15 08:01:42;;;;;;;5.00;1.17;;;;;;;25.46;39.50;100872.00;4464479;32;20096;-67
2022/06/15 08:04:11;;;;;;;3.87;1.52;;;;;;;25.58;39.93;100870.31;4467350;32;20127;-67
2022/06/15 08:06:42;;;;;;;2.35;1.50;;;;;;;25.28;40.96;100865.13;4461650;32;20168;-67
2022/06/15 08:09:13;;;;;;;3.40;1.60;;;;;;;25.34;41.83;100866.56;4462138;32;20138;-68
2022/06/15 08:14:29;;;;;;;3.60;1.37;;;;;;;25.73;39.53;100865.72;4469693;32;20100;-67
2022/06/15 08:16:57;;;;;;;6.57;1.75;;;;;;;25.57;39.03;100867.72;4468931;32;20109;-67
2022/06/15 08:19:24;;;;;;;6.50;1.52;;;;;;;25.66;39.83;100862.56;4464661;32;20092;-67
2022/06/15 08:21:52;;;;;;;3.30;1.73;;;;;;;25.57;38.66;100859.63;4457127;32;20734;-68
2022/06/15 08:24:21;;;;;;;5.10;1.50;;;;;;;25.93;39.11;100869.78;4468905;32;20554;-68
2022/06/15 08:26:48;;;;;;;17.05;2.05;;;;;;;26.18;39.33;100864.44;4468550;32;20100;-68
2022/06/15 08:29:16;;;;;;;14.63;1.90;;;;;;;26.35;38.10;100873.19;4460936;32;20512;-68
2022/06/15 08:31:43;;;;;;;39.88;2.90;;;;;;;26.45;38.64;100867.03;4441127;32;20131;-68
2022/06/15 08:34:11;;;;;;;8.82;1.70;;;;;;;26.34;38.25;100866.94;4459028;32;20123;-68
2022/06/15 08:36:38;;;;;;;1.55;1.40;;;;;;;26.12;37.26;100864.88;4468284;32;20572;-68
2022/06/15 08:39:06;;;;;;;4.03;1.30;;;;;;;26.02;37.67;100863.78;4468394;32;20092;-67
2022/06/15 08:41:36;;;;;;;6.50;1.52;;;;;;;26.00;37.59;100871.09;4461032;32;20112;-67
2022/06/15 08:44:24;;;;;;;7.60;1.55;;;;;;;25.65;37.74;100871.63;4453486;32;20097;-67
2022/06/15 08:47:09;;;;;;;9.00;1.70;;;;;;;25.90;38.52;100870.00;4453447;32;20131;-67
2022/06/15 08:49:55;;;;;;;4.40;1.50;;;;;;;26.55;38.42;100855.62;4453536;32;20077;-67
2022/06/15 08:52:49;;;;;;;4.28;1.65;;;;;;;26.93;37.73;100860.97;4452895;32;20101;-68
2022/06/15 08:55:54;;;;;;;5.45;1.50;;;;;;;26.95;37.33;100859.00;4449276;32;20174;-68
2022/06/15 08:58:27;;;;;;;3.90;1.35;;;;;;;27.25;36.91;100860.47;4418703;32;20108;-68
2022/06/15 09:01:01;;;;;;;2.92;1.40;;;;;;;27.27;36.22;100859.34;4453056;32;20084;-68
2022/06/15 09:04:01;;;;;;;3.70;1.50;;;;;;;27.00;35.58;100859.53;4460756;32;20518;-69
2022/06/15 09:06:52;;;;;;;11.57;1.52;;;;;;;27.08;36.12;100865.25;4463499;32;20101;-68
2022/06/15 09:09:56;;;;;;;6.85;1.52;;;;;;;27.25;36.56;100863.19;4458534;32;20096;-68
2022/06/15 09:12:49;;;;;;;2.15;1.00;;;;;;;27.45;37.05;100862.53;4455496;32;20157;-68
2022/06/15 09:15:23;;;;;;;10.80;1.50;;;;;;;27.64;36.67;100862.88;4454968;32;20154;-68
2022/06/15 09:17:52;;;;;;;3.00;1.45;;;;;;;27.96;36.44;100862.31;4454611;32;20393;-69
2022/06/15 09:20:35;;;;;;;9.68;1.25;;;;;;;27.87;34.83;100858.44;4440548;32;20774;-69
2022/06/15 09:23:11;;;;;;;5.30;1.75;;;;;;;27.64;35.79;100857.47;4454472;32;20481;-69
2022/06/15 09:25:50;;;;;;;3.00;2.05;;;;;;;27.79;35.67;100860.87;4455309;32;20109;-69
2022/06/15 09:28:27;;;;;;;9.15;1.80;;;;;;;28.02;35.56;100852.81;4459695;32;20554;-69
2022/06/15 09:31:05;;;;;;;6.72;1.60;;;;;;;26.94;35.55;100857.28;4457214;32;20104;-69
2022/06/15 09:33:42;;;;;;;3.37;1.10;;;;;;;26.52;36.10;100845.03;4461317;32;20411;-69
2022/06/15 09:36:17;;;;;;;4.85;1.48;;;;;;;26.86;35.55;100843.47;4456121;32;20160;-69
2022/06/15 09:38:44;;;;;;;4.22;1.35;;;;;;;27.03;34.90;100847.63;4453944;32;20123;-69
2022/06/15 09:41:28;;;;;;;3.92;1.75;;;;;;;27.51;35.64;100848.53;4456902;32;20112;-69
2022/06/15 09:44:17;;;;;;;3.65;1.60;;;;;;;27.73;34.55;100845.06;4458297;32;20100;-69
2022/06/15 09:47:07;;;;;;;7.78;1.50;;;;;;;28.38;34.94;100835.56;4458307;32;20130;-69
2022/06/15 09:49:59;;;;;;;3.45;1.50;;;;;;;28.89;34.27;100839.63;4454478;32;20084;-69
2022/06/15 09:52:46;;;;;;;5.80;1.50;;;;;;;29.00;34.13;100835.06;4465106;32;20131;-69
2022/06/15 09:55:43;;;;;;;2.53;1.50;;;;;;;29.33;33.96;100836.00;4451411;32;20157;-69
2022/06/15 09:58:40;;;;;;;4.93;1.55;;;;;;;29.42;34.33;100826.19;4456641;32;20161;-69
2022/06/15 10:01:09;;;;;;;3.58;1.20;;;;;;;29.33;33.05;100826.97;4462303;32;20130;-69
2022/06/15 10:03:42;;;;;;;7.22;2.12;;;;;;;29.74;33.63;100829.78;4452871;32;20146;-69
2022/06/15 10:06:29;;;;;;;3.85;1.55;;;;;;;29.90;32.32;100823.06;4458768;32;20085;-69
2022/06/15 10:08:59;;;;;;;4.60;1.30;;;;;;;29.51;33.51;100820.00;4470973;32;20092;-69
2022/06/15 10:11:46;;;;;;;7.30;1.50;;;;;;;29.76;33.49;100818.81;4471054;32;20165;-69
2022/06/15 10:14:24;;;;;;;10.55;1.30;;;;;;;29.98;32.44;100813.22;4471005;32;20148;-68
2022/06/15 10:17:00;;;;;;;4.37;1.40;;;;;;;29.79;32.61;100813.13;4470035;32;20751;-69
2022/06/15 10:19:31;;;;;;;4.00;1.25;;;;;;;29.92;32.54;100807.47;4458607;32;20181;-69
2022/06/15 10:22:03;;;;;;;5.70;1.83;;;;;;;30.14;32.41;100810.06;4459248;32;20126;-69
2022/06/15 10:24:40;;;;;;;7.82;1.35;;;;;;;29.93;33.57;100801.91;4461742;32;20130;-69
2022/06/15 10:27:29;;;;;;;10.13;1.42;;;;;;;30.10;32.29;100795.00;4455697;32;20405;-68
2022/06/15 10:30:17;;;;;;;3.33;1.45;;;;;;;30.51;32.42;100798.66;4465340;32;20084;-69
2022/06/15 10:33:17;;;;;;;5.70;1.30;;;;;;;31.17;30.52;100803.63;4460440;32;20164;-69
2022/06/15 10:35:53;;;;;;;2.40;1.48;;;;;;;30.69;30.24;100801.59;4455956;32;20262;-69
2022/06/15 10:38:20;;;;;;;5.57;1.73;;;;;;;30.39;30.96;100787.03;4463199;32;20080;-69
2022/06/15 10:40:58;;;;;;;5.05;1.33;;;;;;;30.05;31.15;100793.69;4466145;32;20089;-69
2022/06/15 10:43:32;;;;;;;1.73;1.35;;;;;;;30.92;30.59;100797.69;4470091;32;20162;-69
2022/06/15 10:46:02;;;;;;;7.65;1.75;;;;;;;30.83;29.64;100795.78;4462371;32;20122;-69
2022/06/15 10:48:36;;;;;;;11.32;1.42;;;;;;;30.52;30.32;100794.94;4461761;32;20118;-68
2022/06/15 10:51:07;;;;;;;4.90;1.12;;;;;;;30.98;31.12;100792.69;4462748;32;20093;-69
2022/06/15 10:53:52;;;;;;;3.85;1.70;;;;;;;31.59;30.03;100789.72;4461567;32;20131;-68
2022/06/15 11:02:37;;;;;;;15.00;1.83;;;;;;;31.82;29.90;100788.41;4453933;32;20128;-69
2022/06/15 11:05:12;;;;;;;6.20;1.90;;;;;;;32.10;29.66;100785.81;4462598;32;20127;-68
2022/06/15 11:07:53;;;;;;;5.22;1.80;;;;;;;32.04;29.07;100787.25;4470556;32;20208;-68
2022/06/15 11:10:24;;;;;;;3.10;1.50;;;;;;;30.92;29.74;100785.91;4462521;32;20084;-68
2022/06/15 11:12:56;;;;;;;11.15;1.50;;;;;;;31.59;29.57;100781.56;4469129;32;20092;-68
2022/06/15 11:18:01;;;;;;;3.62;1.40;;;;;;;31.55;30.03;100780.13;4469314;32;20123;-68
2022/06/15 11:18:31;;;;;;;3.53;1.30;;;;;;;31.82;28.67;100782.97;4467464;32;20105;-68
2022/06/15 11:21:15;;;;;;;6.53;1.42;;;;;;;31.49;30.11;100778.88;4460837;32;20080;-68
2022/06/15 11:23:49;;;;;;;5.07;1.42;;;;;;;31.93;29.01;100779.25;4456642;32;20119;-68
2022/06/15 11:29:41;;;;;;;3.55;1.30;;;;;;;31.10;30.28;100769.78;4468731;32;20878;-68
2022/06/15 11:32:44;;;;;;;6.47;1.73;;;;;;;31.78;29.45;100765.19;4454314;32;20439;-69
2022/06/15 11:35:11;;;;;;;4.32;1.70;;;;;;;32.63;29.53;100757.91;4453722;32;20115;-69
2022/06/15 11:37:48;;;;;;;7.87;1.50;;;;;;;32.60;27.80;100755.50;4454484;32;20748;-69
2022/06/15 11:40:33;;;;;;;6.70;2.00;;;;;;;32.88;28.67;100755.47;4455462;32;20089;-69
2022/06/15 11:43:10;;;;;;;1.87;1.70;;;;;;;33.41;26.42;100758.25;4463739;32;20088;-69
2022/06/15 11:45:54;;;;;;;2.40;1.05;;;;;;;34.24;26.56;100747.81;4459001;32;20141;-69
2022/06/15 11:48:51;;;;;;;4.03;1.35;;;;;;;35.04;26.31;100747.44;4454743;32;20975;-69
2022/06/15 11:51:38;;;;;;;7.05;1.50;;;;;;;35.11;25.62;100758.56;4462099;32;20485;-69
2022/06/15 11:54:14;;;;;;;2.70;1.45;;;;;;;37.31;24.60;100746.16;4460539;32;20149;-69
2022/06/15 11:57:03;;;;;;;1.90;1.40;;;;;;;38.50;24.17;100739.00;4456592;32;20100;-69
2022/06/15 11:59:30;;;;;;;1.15;1.00;;;;;;;38.83;22.33;100738.56;4447858;32;20092;-69
2022/06/15 12:02:41;;;;;;;3.25;1.25;;;;;;;39.52;22.66;100740.78;4466437;32;20452;-69
2022/06/15 12:05:36;;;;;;;7.60;1.20;;;;;;;40.04;21.48;100743.13;4468980;32;20108;-69
2022/06/15 12:08:15;;;;;;;3.53;1.90;;;;;;;40.09;21.17;100739.72;4462199;32;20092;-69
2022/06/15 12:10:53;;;;;;;5.47;1.80;;;;;;;40.02;21.85;100736.09;4459015;32;20152;-70
2022/06/15 12:13:49;;;;;;;3.03;1.12;;;;;;;38.48;24.06;100728.19;4459344;32;20766;-69
2022/06/15 12:16:38;;;;;;;5.57;1.25;;;;;;;40.01;21.90;100737.16;4459948;32;20096;-69